createdAt,value
2023-05-12T00:01:08.799Z,19.08
2023-05-12T00:04:11.140Z,19.08
2023-05-12T00:07:13.286Z,19.06
2023-05-12T00:10:15.322Z,19.06
2023-05-12T00:13:17.559Z,19.06
2023-05-12T00:16:19.700Z,19.05
2023-05-12T00:19:22.004Z,19.05
2023-05-12T00:22:24.032Z,19.03
2023-05-12T00:25:26.077Z,19.05
2023-05-12T00:28:28.124Z,19.03
2023-05-12T00:31:30.866Z,19.02
2023-05-12T00:34:32.929Z,19.02
2023-05-12T00:37:35.018Z,19.01
2023-05-12T00:40:37.138Z,19.01
2023-05-12T00:43:39.316Z,19.01
2023-05-12T00:46:41.690Z,18.99
2023-05-12T00:49:44.116Z,19.00
2023-05-12T00:52:47.964Z,19.01
2023-05-12T00:55:50.025Z,19.00
2023-05-12T00:58:52.041Z,18.98
2023-05-12T01:01:54.050Z,18.98
2023-05-12T01:04:56.126Z,18.97
2023-05-12T01:08:00.519Z,18.98
2023-05-12T01:11:02.706Z,18.97
2023-05-12T01:14:04.736Z,18.96
2023-05-12T01:17:11.433Z,18.96
2023-05-12T01:20:16.453Z,18.94
2023-05-12T01:23:20.089Z,18.95
2023-05-12T01:26:22.310Z,18.94
2023-05-12T01:29:24.906Z,18.94
2023-05-12T01:32:27.097Z,18.93
2023-05-12T01:35:29.205Z,18.94
2023-05-12T01:38:31.272Z,18.93
2023-05-12T01:41:33.317Z,18.91
2023-05-12T01:44:35.621Z,18.91
2023-05-12T01:47:37.765Z,18.91
2023-05-12T01:50:39.877Z,18.92
2023-05-12T01:53:42.175Z,18.91
2023-05-12T01:56:44.214Z,18.89
2023-05-12T01:59:46.267Z,18.88
2023-05-12T02:02:48.731Z,18.87
2023-05-12T02:05:51.349Z,18.87
2023-05-12T02:08:53.401Z,18.88
2023-05-12T02:11:56.346Z,18.87
2023-05-12T02:14:58.322Z,18.87
2023-05-12T02:18:00.424Z,18.86
2023-05-12T02:21:02.628Z,18.87
2023-05-12T02:24:04.803Z,18.86
2023-05-12T02:27:06.814Z,18.84
2023-05-12T02:30:09.104Z,18.86
2023-05-12T02:33:11.160Z,18.84
2023-05-12T02:36:13.219Z,18.84
2023-05-12T02:39:15.303Z,18.84
2023-05-12T02:42:17.437Z,18.83
2023-05-12T02:45:19.436Z,18.82
2023-05-12T02:48:21.674Z,18.82
2023-05-12T02:51:23.822Z,18.82
2023-05-12T02:54:25.891Z,18.81
2023-05-12T02:57:33.626Z,18.81
2023-05-12T03:00:35.841Z,18.81
2023-05-12T03:03:38.630Z,18.79
2023-05-12T03:06:41.002Z,18.81
2023-05-12T03:09:43.058Z,18.79
2023-05-12T03:12:45.157Z,18.78
2023-05-12T03:15:47.213Z,18.79
2023-05-12T03:18:49.416Z,18.77
2023-05-12T03:21:51.548Z,18.78
2023-05-12T03:24:53.598Z,18.78
2023-05-12T03:27:55.632Z,18.77
2023-05-12T03:30:57.694Z,18.76
2023-05-12T03:33:59.727Z,18.76
2023-05-12T03:37:01.762Z,18.76
2023-05-12T03:40:04.027Z,18.74
2023-05-12T03:43:06.017Z,18.74
2023-05-12T03:46:08.170Z,18.73
2023-05-12T03:49:10.600Z,18.73
2023-05-12T03:52:12.710Z,18.74
2023-05-12T03:55:14.763Z,18.73
2023-05-12T03:58:16.800Z,18.71
2023-05-12T04:01:18.831Z,18.72
2023-05-12T04:04:20.887Z,18.72
2023-05-12T04:07:22.944Z,18.71
2023-05-12T04:10:25.018Z,18.71
2023-05-12T04:13:28.332Z,18.70
2023-05-12T04:16:30.393Z,18.70
2023-05-12T04:19:32.464Z,18.70
2023-05-12T04:22:34.603Z,18.68
2023-05-12T04:25:40.382Z,18.68
2023-05-12T04:28:42.432Z,18.70
2023-05-12T04:31:44.532Z,18.69
2023-05-12T04:34:48.027Z,18.69
2023-05-12T04:37:50.220Z,18.68
2023-05-12T04:40:52.232Z,18.70
2023-05-12T04:46:59.222Z,18.72
2023-05-12T04:50:01.275Z,18.73
2023-05-12T04:53:03.271Z,18.74
2023-05-12T04:56:05.546Z,18.74
2023-05-12T04:59:07.555Z,18.74
2023-05-12T05:02:10.049Z,18.76
2023-05-12T05:05:12.170Z,18.74
2023-05-12T05:08:14.239Z,18.77
2023-05-12T05:11:16.276Z,18.77
2023-05-12T05:14:18.355Z,18.78
2023-05-12T05:17:20.405Z,18.76
2023-05-12T05:20:27.906Z,18.77
2023-05-12T05:23:31.077Z,18.76
2023-05-12T05:26:33.465Z,18.78
2023-05-12T05:29:35.465Z,18.74
2023-05-12T05:32:40.141Z,18.73
2023-05-12T05:35:42.574Z,18.71
2023-05-12T05:38:44.670Z,18.70
2023-05-12T05:41:46.853Z,18.69
2023-05-12T05:44:48.850Z,18.69
2023-05-12T05:47:53.091Z,18.67
2023-05-12T05:50:55.218Z,18.67
2023-05-12T05:53:57.418Z,18.67
2023-05-12T05:57:02.020Z,18.66
2023-05-12T06:00:05.943Z,18.66
2023-05-12T06:03:08.197Z,18.69
2023-05-12T06:06:10.261Z,18.67
2023-05-12T06:09:12.726Z,18.65
2023-05-12T06:12:14.786Z,18.65
2023-05-12T06:15:17.650Z,18.66
2023-05-12T06:18:19.779Z,18.65
2023-05-12T06:21:21.819Z,18.67
2023-05-12T06:24:23.839Z,18.69
2023-05-12T06:27:25.890Z,18.72
2023-05-12T06:30:28.061Z,18.78
2023-05-12T06:33:30.154Z,18.83
2023-05-12T06:36:32.172Z,18.85
2023-05-12T06:39:34.321Z,18.83
2023-05-12T06:42:36.321Z,18.80
2023-05-12T06:45:38.379Z,18.80
2023-05-12T06:48:40.457Z,18.78
2023-05-12T06:51:42.762Z,18.78
2023-05-12T06:54:44.738Z,18.80
2023-05-12T06:57:46.830Z,18.77
2023-05-12T07:00:49.060Z,18.76
2023-05-12T07:03:51.546Z,18.77
2023-05-12T07:06:53.852Z,18.74
2023-05-12T07:09:56.686Z,18.77
2023-05-12T07:12:58.769Z,18.74
2023-05-12T07:16:00.869Z,18.74
2023-05-12T07:19:03.085Z,18.73
2023-05-12T07:22:05.285Z,18.72
2023-05-12T07:25:08.176Z,18.72
2023-05-12T07:28:11.382Z,18.72
2023-05-12T07:31:13.466Z,18.72
2023-05-12T07:34:15.653Z,18.71
2023-05-12T07:37:18.036Z,18.70
2023-05-12T07:40:20.091Z,18.68
2023-05-12T07:43:22.095Z,18.67
2023-05-12T07:46:24.136Z,18.65
2023-05-12T07:49:26.219Z,18.67
2023-05-12T07:52:28.302Z,18.65
2023-05-12T07:55:30.577Z,18.65
2023-05-12T07:58:32.622Z,18.67
2023-05-12T08:01:34.954Z,18.69
2023-05-12T08:04:37.157Z,18.67
2023-05-12T08:07:41.165Z,18.68
2023-05-12T08:10:44.281Z,18.68
2023-05-12T08:13:46.358Z,18.68
2023-05-12T08:16:48.484Z,18.68
2023-05-12T08:19:50.566Z,18.69
2023-05-12T08:22:52.714Z,18.69
2023-05-12T08:25:54.733Z,18.69
2023-05-12T08:28:56.777Z,18.68
2023-05-12T08:31:59.195Z,18.67
2023-05-12T08:35:01.884Z,18.67
2023-05-12T08:38:04.108Z,18.67
2023-05-12T08:41:14.045Z,18.67
2023-05-12T08:44:16.184Z,18.68
2023-05-12T08:47:19.864Z,18.68
2023-05-12T08:50:22.849Z,18.69
2023-05-12T08:53:27.745Z,18.70
2023-05-12T08:59:37.814Z,18.70
2023-05-12T09:02:52.216Z,18.71
2023-05-12T09:05:58.365Z,18.72
2023-05-12T09:09:00.873Z,18.74
2023-05-12T09:12:05.012Z,18.74
2023-05-12T09:15:09.246Z,18.77
2023-05-12T09:18:11.277Z,18.76
2023-05-12T09:21:13.775Z,18.76
2023-05-12T09:24:15.929Z,18.76
2023-05-12T09:27:25.893Z,18.76
2023-05-12T09:30:32.079Z,18.76
2023-05-12T09:33:36.695Z,18.80
2023-05-12T09:36:38.710Z,18.81
2023-05-12T09:39:40.824Z,18.81
2023-05-12T09:42:43.493Z,18.81
2023-05-12T09:45:49.900Z,18.84
2023-05-12T09:48:54.927Z,18.85
2023-05-12T09:51:58.604Z,18.86
2023-05-12T09:55:11.423Z,18.88
2023-05-12T09:58:16.600Z,18.89
2023-05-12T10:01:23.320Z,18.89
2023-05-12T10:04:27.646Z,18.92
2023-05-12T10:07:30.479Z,18.92
2023-05-12T10:10:33.631Z,18.95
2023-05-12T10:13:36.093Z,18.98
2023-05-12T10:16:40.409Z,18.98
2023-05-12T10:19:43.215Z,19.01
2023-05-12T10:22:45.404Z,19.07
2023-05-12T10:25:49.336Z,19.10
2023-05-12T10:28:52.900Z,19.13
2023-05-12T10:31:58.194Z,19.15
2023-05-12T10:35:10.720Z,19.16
2023-05-12T10:38:19.775Z,19.21
2023-05-12T10:41:35.321Z,19.20
2023-05-12T10:44:52.148Z,19.23
2023-05-12T10:48:06.907Z,19.24
2023-05-12T10:51:10.291Z,19.24
2023-05-12T10:54:19.716Z,19.28
2023-05-12T10:57:22.136Z,19.29
2023-05-12T11:00:27.024Z,19.32
2023-05-12T11:03:30.414Z,19.33
2023-05-12T11:06:34.107Z,19.32
2023-05-12T11:09:46.890Z,19.35
2023-05-12T11:12:54.473Z,19.35
2023-05-12T11:15:58.346Z,19.33
2023-05-12T11:19:06.698Z,19.31
2023-05-12T11:22:11.229Z,19.35
2023-05-12T11:25:13.922Z,19.39
2023-05-12T11:28:16.131Z,19.38
2023-05-12T11:31:22.332Z,19.38
2023-05-12T11:34:25.749Z,19.36
2023-05-12T11:37:27.852Z,19.32
2023-05-12T11:40:29.992Z,19.31
2023-05-12T11:43:32.074Z,19.33
2023-05-12T11:46:34.138Z,19.32
2023-05-12T11:49:52.538Z,19.33
2023-05-12T11:52:56.503Z,19.36
2023-05-12T11:55:59.105Z,19.37
2023-05-12T11:59:01.228Z,19.37
2023-05-12T12:02:04.406Z,19.38
2023-05-12T12:05:18.052Z,19.38
2023-05-12T12:08:20.378Z,19.33
2023-05-12T12:11:23.609Z,19.37
2023-05-12T12:14:25.624Z,19.36
2023-05-12T12:17:30.856Z,19.39
2023-05-12T12:20:33.026Z,19.39
2023-05-12T12:23:47.408Z,19.41
2023-05-12T12:26:52.402Z,19.41
2023-05-12T12:29:54.446Z,19.44
2023-05-12T12:32:56.671Z,19.45
2023-05-12T12:35:58.829Z,19.54
2023-05-12T12:39:01.486Z,19.48
2023-05-12T12:42:03.641Z,19.43
2023-05-12T12:45:06.498Z,19.29
2023-05-12T12:48:09.177Z,19.25
2023-05-12T12:51:11.606Z,19.12
2023-05-12T12:54:14.589Z,19.26
2023-05-12T12:57:17.167Z,19.38
2023-05-12T13:00:19.638Z,19.47
2023-05-12T13:03:22.999Z,19.51
2023-05-12T13:06:25.014Z,19.54
2023-05-12T13:09:27.057Z,19.54
2023-05-12T13:12:30.526Z,19.55
2023-05-12T13:15:32.534Z,19.55
2023-05-12T13:18:34.636Z,19.55
2023-05-12T13:21:37.757Z,19.54
2023-05-12T13:24:39.798Z,19.54
2023-05-12T13:27:41.779Z,19.56
2023-05-12T13:30:44.210Z,19.60
2023-05-12T13:33:47.609Z,19.59
2023-05-12T13:36:49.766Z,19.61
2023-05-12T13:39:51.805Z,19.60
2023-05-12T13:42:54.357Z,19.61
2023-05-12T13:45:56.927Z,19.61
2023-05-12T13:48:59.016Z,19.60
2023-05-12T13:52:01.426Z,19.61
2023-05-12T13:55:03.675Z,19.61
2023-05-12T13:58:05.752Z,19.60
2023-05-12T14:01:08.746Z,19.67
2023-05-12T14:04:11.797Z,19.80
2023-05-12T14:07:13.981Z,19.92
2023-05-12T14:10:16.182Z,19.83
2023-05-12T14:13:18.222Z,19.68
2023-05-12T14:16:20.542Z,19.52
2023-05-12T14:19:22.581Z,19.38
2023-05-12T14:22:26.297Z,19.37
2023-05-12T14:25:30.715Z,19.33
2023-05-12T14:28:32.820Z,19.30
2023-05-12T14:31:34.993Z,19.26
2023-05-12T14:34:37.073Z,19.23
2023-05-12T14:37:39.234Z,19.23
2023-05-12T14:40:42.845Z,19.20
2023-05-12T14:43:44.945Z,19.17
2023-05-12T14:46:47.008Z,19.14
2023-05-12T14:49:49.140Z,19.11
2023-05-12T14:52:51.220Z,19.14
2023-05-12T14:55:53.256Z,19.14
2023-05-12T14:58:55.276Z,19.21
2023-05-12T15:01:57.390Z,19.23
2023-05-12T15:04:59.637Z,19.22
2023-05-12T15:08:01.640Z,19.18
2023-05-12T15:11:04.006Z,19.13
2023-05-12T15:14:06.087Z,18.83
2023-05-12T15:17:08.358Z,18.81
2023-05-12T15:20:10.896Z,18.83
2023-05-12T15:23:12.970Z,18.86
2023-05-12T15:26:31.381Z,18.65
2023-05-12T15:29:41.280Z,18.70
2023-05-12T15:32:43.592Z,18.63
2023-05-12T15:35:45.703Z,18.65
2023-05-12T15:38:48.142Z,18.59
2023-05-12T15:41:53.031Z,18.52
2023-05-12T15:44:55.386Z,18.44
2023-05-12T15:47:57.977Z,18.47
2023-05-12T15:51:03.948Z,18.39
2023-05-12T15:54:08.621Z,18.37
2023-05-12T15:57:13.533Z,18.34
2023-05-12T16:00:16.936Z,18.29
2023-05-12T16:03:19.165Z,18.26
2023-05-12T16:06:21.965Z,18.26
2023-05-12T16:09:24.068Z,18.25
2023-05-12T16:12:26.126Z,18.19
2023-05-12T16:15:28.158Z,18.15
2023-05-12T16:18:31.220Z,18.25
2023-05-12T16:21:33.273Z,18.21
2023-05-12T16:24:35.280Z,18.15
2023-05-12T16:27:38.802Z,18.37
2023-05-12T16:30:40.796Z,18.71
2023-05-12T16:33:42.865Z,18.85
2023-05-12T16:36:45.068Z,18.93
2023-05-12T16:39:47.132Z,18.98
2023-05-12T16:42:49.173Z,18.98
2023-05-12T16:46:00.273Z,19.02
2023-05-12T16:49:02.798Z,19.03
2023-05-12T16:52:05.122Z,19.05
2023-05-12T16:55:07.603Z,19.09
2023-05-12T16:58:09.790Z,19.09
2023-05-12T17:01:11.992Z,19.08
2023-05-12T17:04:15.325Z,19.08
2023-05-12T17:07:17.387Z,19.07
2023-05-12T17:10:19.441Z,19.05
2023-05-12T17:13:21.552Z,19.03
2023-05-12T17:16:23.693Z,19.03
2023-05-12T17:19:25.848Z,19.03
2023-05-12T17:22:27.991Z,19.03
2023-05-12T17:25:31.283Z,19.03
2023-05-12T17:28:33.492Z,19.06
2023-05-12T17:31:36.589Z,19.05
2023-05-12T17:34:38.647Z,19.03
2023-05-12T17:37:40.764Z,19.03
2023-05-12T17:40:43.121Z,19.02
2023-05-12T17:43:45.297Z,19.01
2023-05-12T17:46:47.334Z,18.99
2023-05-12T17:49:49.335Z,19.00
2023-05-12T17:52:53.255Z,18.99
2023-05-12T17:55:55.398Z,18.99
2023-05-12T17:58:58.186Z,18.98
2023-05-12T18:02:00.449Z,18.97
2023-05-12T18:05:02.705Z,18.97
2023-05-12T18:08:04.933Z,18.97
2023-05-12T18:11:07.274Z,18.97
2023-05-12T18:14:09.722Z,18.98
2023-05-12T18:17:11.883Z,18.98
2023-05-12T18:20:13.962Z,18.98
2023-05-12T18:23:15.992Z,19.01
2023-05-12T18:26:18.136Z,19.01
2023-05-12T18:29:20.171Z,18.99
2023-05-12T18:32:23.762Z,18.98
2023-05-12T18:35:26.981Z,18.95
2023-05-12T18:38:29.685Z,18.94
2023-05-12T18:41:31.955Z,18.93
2023-05-12T18:44:34.005Z,18.91
2023-05-12T18:47:36.298Z,18.91
2023-05-12T18:50:38.403Z,18.91
2023-05-12T18:53:40.801Z,18.89
2023-05-12T18:56:42.921Z,18.88
2023-05-12T18:59:44.947Z,18.88
2023-05-12T19:02:47.966Z,18.88
2023-05-12T19:05:50.100Z,18.86
2023-05-12T19:08:52.235Z,18.87
2023-05-12T19:11:54.264Z,18.86
2023-05-12T19:14:56.392Z,18.86
2023-05-12T19:17:58.481Z,18.86
2023-05-12T19:21:01.393Z,18.85
2023-05-12T19:24:03.888Z,18.84
2023-05-12T19:27:06.106Z,18.83
2023-05-12T19:30:08.589Z,18.84
2023-05-12T19:33:10.727Z,18.83
2023-05-12T19:36:12.836Z,18.81
2023-05-12T19:39:14.868Z,18.83
2023-05-12T19:42:16.916Z,18.83
2023-05-12T19:45:19.277Z,18.82
2023-05-12T19:48:21.716Z,18.81
2023-05-12T19:51:23.829Z,18.82
2023-05-12T19:54:26.195Z,18.80
2023-05-12T19:57:29.414Z,18.80
2023-05-12T20:00:31.653Z,18.79
2023-05-12T20:03:33.801Z,18.79
2023-05-12T20:06:35.984Z,18.77
2023-05-12T20:09:37.980Z,18.77
2023-05-12T20:12:40.035Z,18.77
2023-05-12T20:15:43.950Z,18.77
2023-05-12T20:18:46.220Z,18.76
2023-05-12T20:21:48.265Z,18.76
2023-05-12T20:24:51.214Z,18.74
2023-05-12T20:27:55.335Z,18.76
2023-05-12T20:30:57.392Z,18.74
2023-05-12T20:33:59.494Z,18.72
2023-05-12T20:37:01.504Z,18.72
2023-05-12T20:40:05.310Z,18.71
2023-05-12T20:43:07.570Z,18.71
2023-05-12T20:46:09.812Z,18.70
2023-05-12T20:49:12.354Z,18.70
2023-05-12T20:52:14.476Z,18.69
2023-05-12T20:55:16.713Z,18.70
2023-05-12T20:58:18.708Z,18.68
2023-05-12T21:01:20.829Z,18.68
2023-05-12T21:04:23.008Z,18.69
2023-05-12T21:07:25.094Z,18.68
2023-05-12T21:10:27.306Z,18.68
2023-05-12T21:13:29.316Z,18.67
2023-05-12T21:16:31.366Z,18.67
2023-05-12T21:19:38.200Z,18.66
2023-05-12T21:22:43.002Z,18.66
2023-05-12T21:25:45.086Z,18.64
2023-05-12T21:28:47.115Z,18.64
2023-05-12T21:31:49.175Z,18.65
2023-05-12T21:34:51.217Z,18.64
2023-05-12T21:37:53.209Z,18.64
2023-05-12T21:40:56.334Z,18.63
2023-05-12T21:43:58.491Z,18.63
2023-05-12T21:47:00.578Z,18.62
2023-05-12T21:50:04.486Z,18.62
2023-05-12T21:53:06.531Z,18.62
2023-05-12T21:56:08.604Z,18.62
2023-05-12T21:59:10.639Z,18.62
2023-05-12T22:02:13.178Z,18.61
2023-05-12T22:05:15.361Z,18.61
2023-05-12T22:08:18.467Z,18.57
2023-05-12T22:11:21.512Z,18.57
2023-05-12T22:14:23.721Z,18.59
2023-05-12T22:17:25.810Z,18.57
2023-05-12T22:20:28.102Z,18.57
2023-05-12T22:23:30.193Z,18.57
2023-05-12T22:26:32.746Z,18.57
2023-05-12T22:29:34.809Z,18.55
2023-05-12T22:32:37.167Z,18.57
2023-05-12T22:35:39.337Z,18.55
2023-05-12T22:38:41.381Z,18.55
2023-05-12T22:41:43.399Z,18.55
2023-05-12T22:44:45.430Z,18.55
2023-05-12T22:47:47.473Z,18.55
2023-05-12T22:50:49.561Z,18.54
2023-05-12T22:53:51.582Z,18.53
2023-05-12T22:56:53.577Z,18.53
2023-05-12T22:59:55.713Z,18.53
2023-05-12T23:02:59.858Z,18.53
2023-05-12T23:06:01.900Z,18.52
2023-05-12T23:09:03.974Z,18.51
2023-05-12T23:12:06.307Z,18.51
2023-05-12T23:15:08.721Z,18.50
2023-05-12T23:18:10.826Z,18.51
2023-05-12T23:21:12.842Z,18.50
2023-05-12T23:24:14.896Z,18.48
2023-05-12T23:27:16.911Z,18.48
2023-05-12T23:30:19.169Z,18.49
2023-05-12T23:33:21.438Z,18.48
2023-05-12T23:36:23.464Z,18.46
2023-05-12T23:39:25.523Z,18.47
2023-05-12T23:42:27.540Z,18.47
2023-05-12T23:45:29.606Z,18.44
2023-05-12T23:48:31.932Z,18.47
2023-05-12T23:51:34.347Z,18.43
2023-05-12T23:54:36.360Z,18.44
2023-05-12T23:57:38.375Z,18.44
